Beebe, South Dakota
Current Conditions -  °F | °C
As of 5:53 PM on Sunday 21 Dec 2014 (Local Time) from KABR Reporting Station
Overcast Overcast  
Wind Chill: 29°   Ceiling: 1200
Heat Index: 33°   Visibility: 10mi
Dew Point: 30°   Wind: 5mph
Humidity: 89%   Direction: 140°SE
Pressure: 29.51"   Gusts: NA
Location:  45.4755°N, 98.5387°W
Report Text: KABR 212353Z AUTO 14004KT 10SM SCT008 OVC012 01/M01 A2951 RMK AO2 SLP005 I6001 T00061011 10017 20000 58003
Loading
Personal Weather Stations






























Interactive Weather Map New forecast layout! Learn more

10-Day Weather Forecast

Advertisements
Track Severe Weather on mobile